createdAt,value
2023-01-05T00:00:08.950Z,4.90
2023-01-05T00:02:35.466Z,4.07
2023-01-05T00:05:01.984Z,4.07
2023-01-05T00:07:28.409Z,4.30
2023-01-05T00:09:54.799Z,4.20
2023-01-05T00:12:39.865Z,3.42
2023-01-05T00:15:25.467Z,4.10
2023-01-05T00:18:10.240Z,4.15
2023-01-05T00:20:55.074Z,4.20
2023-01-05T00:23:21.488Z,3.90
2023-01-05T00:25:47.852Z,3.38
2023-01-05T00:28:14.217Z,3.78
2023-01-05T00:30:43.285Z,3.80
2023-01-05T00:33:14.559Z,4.22
2023-01-05T00:35:41.075Z,4.22
2023-01-05T00:38:08.014Z,4.80
2023-01-05T00:40:35.281Z,3.88
2023-01-05T00:43:01.815Z,3.92
2023-01-05T00:45:28.335Z,4.40
2023-01-05T00:47:55.119Z,4.65
2023-01-05T00:50:22.036Z,4.20
2023-01-05T00:52:48.879Z,4.10
2023-01-05T00:55:15.401Z,4.50
2023-01-05T00:57:41.878Z,4.28
2023-01-05T01:00:12.134Z,4.32
2023-01-05T01:02:38.568Z,4.10
2023-01-05T01:05:06.122Z,4.53
2023-01-05T01:07:32.483Z,4.20
2023-01-05T01:09:58.870Z,4.25
2023-01-05T01:12:25.246Z,3.70
2023-01-05T01:14:51.637Z,3.70
2023-01-05T01:17:18.280Z,4.03
2023-01-05T01:19:46.544Z,3.40
2023-01-05T01:22:13.282Z,4.15
2023-01-05T01:24:39.709Z,3.42
2023-01-05T01:27:06.129Z,4.30
2023-01-05T01:29:32.584Z,4.65
2023-01-05T01:31:59.758Z,4.30
2023-01-05T01:34:26.402Z,3.38
2023-01-05T01:36:55.024Z,3.90
2023-01-05T01:39:21.427Z,4.20
2023-01-05T01:41:47.864Z,4.03
2023-01-05T01:44:52.083Z,5.07
2023-01-05T01:47:24.584Z,3.53
2023-01-05T01:52:17.973Z,4.43
2023-01-05T01:54:45.196Z,3.55
2023-01-05T01:57:13.140Z,4.93
2023-01-05T01:59:39.849Z,5.10
2023-01-05T02:02:06.875Z,5.55
2023-01-05T02:04:33.692Z,4.25
2023-01-05T02:07:01.503Z,4.18
2023-01-05T02:09:27.956Z,4.78
2023-01-05T02:12:06.039Z,4.35
2023-01-05T02:14:50.579Z,5.13
2023-01-05T02:17:55.206Z,4.28
2023-01-05T02:20:39.697Z,5.20
2023-01-05T02:23:18.243Z,4.22
2023-01-05T02:26:12.539Z,4.65
2023-01-05T02:29:06.570Z,4.88
2023-01-05T02:31:37.119Z,4.05
2023-01-05T02:34:13.124Z,4.13
2023-01-05T02:36:53.407Z,4.65
2023-01-05T02:39:35.278Z,4.28
2023-01-05T02:42:09.095Z,4.00
2023-01-05T02:44:35.719Z,4.43
2023-01-05T02:47:04.101Z,4.20
2023-01-05T02:49:33.343Z,4.55
2023-01-05T02:52:01.191Z,4.60
2023-01-05T02:54:31.562Z,4.28
2023-01-05T02:57:02.067Z,4.40
2023-01-05T02:59:33.389Z,4.35
2023-01-05T03:02:04.525Z,4.55
2023-01-05T03:04:34.475Z,4.68
2023-01-05T03:07:04.410Z,4.60
2023-01-05T03:09:36.952Z,4.13
2023-01-05T03:12:48.226Z,3.78
2023-01-05T03:15:22.813Z,4.05
2023-01-05T03:18:00.792Z,4.45
2023-01-05T03:20:29.154Z,3.75
2023-01-05T03:23:15.200Z,4.28
2023-01-05T03:26:00.348Z,4.20
2023-01-05T03:28:49.283Z,4.00
2023-01-05T03:31:38.329Z,4.57
2023-01-05T03:34:43.715Z,4.13
2023-01-05T03:37:13.636Z,3.97
2023-01-05T03:39:42.464Z,4.28
2023-01-05T03:42:10.272Z,4.03
2023-01-05T03:44:38.882Z,3.75
2023-01-05T03:47:05.328Z,3.65
2023-01-05T03:49:32.088Z,3.80
2023-01-05T03:51:58.491Z,4.53
2023-01-05T03:54:24.927Z,4.50
2023-01-05T03:56:51.283Z,4.20
2023-01-05T03:59:17.705Z,4.50
2023-01-05T04:01:44.327Z,4.53
2023-01-05T04:04:10.955Z,4.30
2023-01-05T04:06:37.345Z,4.15
2023-01-05T04:09:03.793Z,4.45
2023-01-05T04:11:30.168Z,4.97
2023-01-05T04:13:56.699Z,4.65
2023-01-05T04:16:23.910Z,4.60
2023-01-05T04:18:50.488Z,4.00
2023-01-05T04:21:16.897Z,4.60
2023-01-05T04:23:43.377Z,4.22
2023-01-05T04:26:09.725Z,3.92
2023-01-05T04:28:36.942Z,4.05
2023-01-05T04:31:03.517Z,5.00
2023-01-05T04:33:29.926Z,3.92
2023-01-05T04:35:56.365Z,4.45
2023-01-05T04:38:22.731Z,4.50
2023-01-05T04:40:50.737Z,3.85
2023-01-05T04:43:18.051Z,4.70
2023-01-05T04:45:47.874Z,4.13
2023-01-05T04:48:14.483Z,4.57
2023-01-05T04:50:40.936Z,4.28
2023-01-05T04:53:07.345Z,4.88
2023-01-05T04:55:33.728Z,4.32
2023-01-05T04:58:00.170Z,4.30
2023-01-05T05:00:26.701Z,4.80
2023-01-05T05:02:53.199Z,4.55
2023-01-05T05:05:19.714Z,4.95
2023-01-05T05:07:46.092Z,4.55
2023-01-05T05:10:12.523Z,4.20
2023-01-05T05:12:38.884Z,5.10
2023-01-05T05:15:05.708Z,5.18
2023-01-05T05:17:32.265Z,5.30
2023-01-05T05:19:58.646Z,4.47
2023-01-05T05:22:25.097Z,5.85
2023-01-05T05:24:51.462Z,4.97
2023-01-05T05:27:17.846Z,4.70
2023-01-05T05:29:44.248Z,5.43
2023-01-05T05:32:10.676Z,4.85
2023-01-05T05:34:37.215Z,4.70
2023-01-05T05:37:03.580Z,5.18
2023-01-05T05:39:30.103Z,4.82
2023-01-05T05:41:56.494Z,5.20
2023-01-05T05:44:22.862Z,5.22
2023-01-05T05:46:49.282Z,4.15
2023-01-05T05:49:15.713Z,4.40
2023-01-05T05:51:42.123Z,4.53
2023-01-05T05:54:08.696Z,4.15
2023-01-05T05:56:35.090Z,4.43
2023-01-05T05:59:02.008Z,4.85
2023-01-05T06:01:28.970Z,4.35
2023-01-05T06:03:55.643Z,3.53
2023-01-05T06:06:22.092Z,4.60
2023-01-05T06:08:48.495Z,4.22
2023-01-05T06:11:14.953Z,4.85
2023-01-05T06:13:42.108Z,5.05
2023-01-05T06:16:08.624Z,4.43
2023-01-05T06:18:35.120Z,3.83
2023-01-05T06:21:02.186Z,5.05
2023-01-05T06:23:28.833Z,4.97
2023-01-05T06:25:55.374Z,5.13
2023-01-05T06:28:21.806Z,5.32
2023-01-05T06:30:48.388Z,5.38
2023-01-05T06:33:14.839Z,5.10
2023-01-05T06:35:41.259Z,6.20
2023-01-05T06:38:07.684Z,5.38
2023-01-05T06:40:34.062Z,4.82
2023-01-05T06:43:00.485Z,5.25
2023-01-05T06:45:26.988Z,4.80
2023-01-05T06:47:53.496Z,5.28
2023-01-05T06:50:19.878Z,4.60
2023-01-05T06:52:46.285Z,5.00
2023-01-05T06:55:12.847Z,5.00
2023-01-05T06:57:39.447Z,4.85
2023-01-05T07:00:09.282Z,5.88
2023-01-05T07:02:35.760Z,5.78
2023-01-05T07:05:02.334Z,5.47
2023-01-05T07:07:28.818Z,5.75
2023-01-05T07:09:55.200Z,4.88
2023-01-05T07:12:21.766Z,5.80
2023-01-05T07:14:52.887Z,5.22
2023-01-05T07:17:22.313Z,5.63
2023-01-05T07:19:48.701Z,5.18
2023-01-05T07:22:15.240Z,4.45
2023-01-05T07:24:41.712Z,5.35
2023-01-05T07:27:09.992Z,4.60
2023-01-05T07:29:36.835Z,4.63
2023-01-05T07:32:03.397Z,4.82
2023-01-05T07:34:30.105Z,4.65
2023-01-05T07:36:56.580Z,4.88
2023-01-05T07:39:22.945Z,4.75
2023-01-05T07:41:49.375Z,4.57
2023-01-05T07:44:15.788Z,4.10
2023-01-05T07:46:42.195Z,3.95
2023-01-05T07:49:08.714Z,4.68
2023-01-05T07:51:37.220Z,4.22
2023-01-05T07:54:03.802Z,4.70
2023-01-05T07:56:30.192Z,3.47
2023-01-05T07:58:56.577Z,4.07
2023-01-05T08:01:23.056Z,4.20
2023-01-05T08:03:49.631Z,3.90
2023-01-05T08:06:18.994Z,3.97
2023-01-05T08:08:45.979Z,4.70
2023-01-05T08:11:15.444Z,3.80
2023-01-05T08:14:02.338Z,4.53
2023-01-05T08:16:30.940Z,4.72
2023-01-05T08:18:58.019Z,5.22
2023-01-05T08:21:24.523Z,4.57
2023-01-05T08:23:53.017Z,4.93
2023-01-05T08:26:22.603Z,4.50
2023-01-05T08:28:49.618Z,4.13
2023-01-05T08:31:21.620Z,4.07
2023-01-05T08:33:48.101Z,4.63
2023-01-05T08:36:16.860Z,4.32
2023-01-05T08:38:48.307Z,4.20
2023-01-05T08:41:19.998Z,3.33
2023-01-05T08:43:51.649Z,4.07
2023-01-05T08:46:19.570Z,4.10
2023-01-05T08:48:54.397Z,4.65
2023-01-05T08:51:21.091Z,4.30
2023-01-05T08:53:47.945Z,4.78
2023-01-05T08:56:14.578Z,3.85
2023-01-05T08:58:41.518Z,4.45
2023-01-05T09:01:14.017Z,4.07
2023-01-05T09:03:41.080Z,4.00
2023-01-05T09:06:11.696Z,4.05
2023-01-05T09:08:39.190Z,4.45
2023-01-05T09:11:17.725Z,4.60
2023-01-05T09:13:55.167Z,4.47
2023-01-05T09:16:49.514Z,4.55
2023-01-05T09:19:11.132Z,3.78
2023-01-05T09:21:39.413Z,3.97
2023-01-05T09:24:07.496Z,4.03
2023-01-05T09:26:33.986Z,4.35
2023-01-05T09:29:00.536Z,3.60
2023-01-05T09:31:26.979Z,4.40
2023-01-05T09:33:53.442Z,3.88
2023-01-05T09:36:19.879Z,3.90
2023-01-05T09:38:50.485Z,3.83
2023-01-05T09:41:38.238Z,4.07
2023-01-05T09:44:12.046Z,3.30
2023-01-05T09:46:41.776Z,4.10
2023-01-05T09:49:13.890Z,4.45
2023-01-05T09:51:40.700Z,4.00
2023-01-05T09:54:07.378Z,4.60
2023-01-05T09:57:09.439Z,3.97
2023-01-05T09:59:35.148Z,3.90
2023-01-05T10:02:04.833Z,3.90
2023-01-05T10:04:32.822Z,4.07
2023-01-05T10:07:19.909Z,4.03
2023-01-05T10:09:46.629Z,3.78
2023-01-05T10:12:38.077Z,4.22
2023-01-05T10:15:12.015Z,4.03
2023-01-05T10:17:44.091Z,4.45
2023-01-05T10:23:00.740Z,3.33
2023-01-05T10:25:45.820Z,3.88
2023-01-05T10:28:32.413Z,4.45
2023-01-05T10:31:03.413Z,3.90
2023-01-05T10:33:53.766Z,4.10
2023-01-05T10:37:13.899Z,4.50
2023-01-05T10:40:10.612Z,6.13
2023-01-05T10:42:46.416Z,4.72
2023-01-05T10:45:15.331Z,4.53
2023-01-05T10:47:42.208Z,4.53
2023-01-05T10:50:41.370Z,4.57
2023-01-05T10:53:19.369Z,4.60
2023-01-05T10:56:04.431Z,4.22
2023-01-05T10:58:32.851Z,5.07
2023-01-05T11:01:02.619Z,4.88
2023-01-05T11:04:14.327Z,4.40
2023-01-05T11:06:27.305Z,4.15
2023-01-05T11:11:23.218Z,4.65
2023-01-05T11:13:50.529Z,5.07
2023-01-05T11:16:22.837Z,4.72
2023-01-05T11:19:03.628Z,4.68
2023-01-05T11:21:36.038Z,4.40
2023-01-05T11:24:03.844Z,3.92
2023-01-05T11:26:34.740Z,4.15
2023-01-05T11:29:04.106Z,4.00
2023-01-05T11:31:37.493Z,4.32
2023-01-05T11:34:09.059Z,3.47
2023-01-05T11:36:35.844Z,3.22
2023-01-05T11:39:02.356Z,4.05
2023-01-05T11:41:28.760Z,3.40
2023-01-05T11:44:00.362Z,3.20
2023-01-05T11:46:40.256Z,3.40
2023-01-05T11:49:08.157Z,2.40
2023-01-05T11:51:37.285Z,3.10
2023-01-05T11:54:04.913Z,2.80
2023-01-05T11:56:31.311Z,3.47
2023-01-05T11:58:57.973Z,3.30
2023-01-05T12:01:43.157Z,3.95
2023-01-05T12:04:21.384Z,3.08
2023-01-05T12:07:01.714Z,4.28
2023-01-05T12:09:35.441Z,3.65
2023-01-05T12:12:17.592Z,3.70
2023-01-05T12:15:08.970Z,3.13
2023-01-05T12:17:55.332Z,3.22
2023-01-05T12:20:34.810Z,3.42
2023-01-05T12:23:24.158Z,3.30
2023-01-05T12:26:04.465Z,3.35
2023-01-05T12:29:34.539Z,3.25
2023-01-05T12:35:10.816Z,4.15
2023-01-05T12:38:00.481Z,4.25
2023-01-05T12:40:49.708Z,3.65
2023-01-05T12:43:53.245Z,3.50
2023-01-05T12:46:42.118Z,3.58
2023-01-05T12:49:14.799Z,2.95
2023-01-05T12:51:46.302Z,3.22
2023-01-05T12:54:30.888Z,3.55
2023-01-05T12:57:01.364Z,3.40
2023-01-05T12:59:34.982Z,2.92
2023-01-05T13:02:07.800Z,2.92
2023-01-05T13:04:48.492Z,3.00
2023-01-05T13:07:23.241Z,2.83
2023-01-05T13:10:02.064Z,3.22
2023-01-05T13:12:29.414Z,3.55
2023-01-05T13:15:06.662Z,3.80
2023-01-05T13:17:34.839Z,4.60
2023-01-05T13:20:24.640Z,4.20
2023-01-05T13:22:57.112Z,3.70
2023-01-05T13:27:50.795Z,3.45
2023-01-05T13:30:39.037Z,4.50
2023-01-05T13:33:18.761Z,4.78
2023-01-05T13:35:53.138Z,4.95
2023-01-05T13:39:18.877Z,4.15
2023-01-05T13:42:00.757Z,4.18
2023-01-05T13:44:49.781Z,4.00
2023-01-05T13:47:53.958Z,3.45
2023-01-05T13:50:38.046Z,3.63
2023-01-05T13:53:14.335Z,3.33
2023-01-05T13:55:47.218Z,3.88
2023-01-05T13:59:00.059Z,3.20
2023-01-05T14:01:44.909Z,3.28
2023-01-05T14:04:25.940Z,3.28
2023-01-05T14:06:59.445Z,4.10
2023-01-05T14:09:45.549Z,3.35
2023-01-05T14:12:11.924Z,3.38
2023-01-05T14:15:01.485Z,3.38
2023-01-05T14:17:53.068Z,3.20
2023-01-05T14:20:44.657Z,3.38
2023-01-05T14:23:26.306Z,4.78
2023-01-05T14:25:57.185Z,3.63
2023-01-05T14:28:35.845Z,4.05
2023-01-05T14:31:11.010Z,3.20
2023-01-05T14:33:57.843Z,3.90
2023-01-05T14:36:27.534Z,3.38
2023-01-05T14:38:54.052Z,4.72
2023-01-05T14:41:26.653Z,3.78
2023-01-05T14:44:05.287Z,4.35
2023-01-05T14:46:47.075Z,4.28
2023-01-05T14:49:24.465Z,5.87
2023-01-05T14:51:56.889Z,4.53
2023-01-05T14:54:43.289Z,4.60
2023-01-05T14:57:25.077Z,5.70
2023-01-05T14:59:56.684Z,5.77
2023-01-05T15:02:26.914Z,5.50
2023-01-05T15:04:55.108Z,5.95
2023-01-05T15:07:32.640Z,7.00
2023-01-05T15:10:22.688Z,7.07
2023-01-05T15:13:21.598Z,8.43
2023-01-05T15:15:54.049Z,7.97
2023-01-05T15:21:16.348Z,6.75
2023-01-05T15:24:24.806Z,7.32
2023-01-05T15:27:18.819Z,7.88
2023-01-05T15:30:04.060Z,7.60
2023-01-05T15:32:37.464Z,7.88
2023-01-05T15:35:11.996Z,6.78
2023-01-05T15:37:40.258Z,7.68
2023-01-05T15:40:31.534Z,6.60
2023-01-05T15:43:01.523Z,6.50
2023-01-05T15:45:33.317Z,7.82
2023-01-05T15:48:13.349Z,6.90
2023-01-05T15:50:50.797Z,6.65
2023-01-05T15:53:41.049Z,6.65
2023-01-05T15:56:25.689Z,7.30
2023-01-05T15:58:52.055Z,6.30
2023-01-05T16:01:18.461Z,6.72
2023-01-05T16:03:46.773Z,6.10
2023-01-05T16:06:20.194Z,7.13
2023-01-05T16:08:49.884Z,5.20
2023-01-05T16:11:26.344Z,5.22
2023-01-05T16:14:07.510Z,6.47
2023-01-05T16:16:52.077Z,5.47
2023-01-05T16:19:27.370Z,5.50
2023-01-05T16:22:13.768Z,5.85
2023-01-05T16:24:51.704Z,6.43
2023-01-05T16:27:18.389Z,5.38
2023-01-05T16:29:47.081Z,5.40
2023-01-05T16:32:38.770Z,6.65
2023-01-05T16:35:31.342Z,5.63
2023-01-05T16:38:10.691Z,5.68
2023-01-05T16:40:41.102Z,7.38
2023-01-05T16:43:16.536Z,7.20
2023-01-05T16:45:43.000Z,6.55
2023-01-05T16:48:35.015Z,8.27
2023-01-05T16:51:16.557Z,7.40
2023-01-05T16:53:49.141Z,6.35
2023-01-05T16:56:57.750Z,6.97
2023-01-05T16:59:39.939Z,6.80
2023-01-05T17:02:29.272Z,7.22
2023-01-05T17:04:55.976Z,7.55
2023-01-05T17:07:22.809Z,6.90
2023-01-05T17:09:49.699Z,7.00
2023-01-05T17:12:16.387Z,7.78
2023-01-05T17:14:44.368Z,7.53
2023-01-05T17:17:14.280Z,7.93
2023-01-05T17:19:40.922Z,7.32
2023-01-05T17:22:10.353Z,7.28
2023-01-05T17:24:38.429Z,7.18
2023-01-05T17:27:04.809Z,8.18
2023-01-05T17:29:32.650Z,8.05
2023-01-05T17:31:59.331Z,7.78
2023-01-05T17:34:25.908Z,7.55
2023-01-05T17:36:55.484Z,8.70
2023-01-05T17:39:22.417Z,8.25
2023-01-05T17:41:48.828Z,8.50
2023-01-05T17:44:15.355Z,7.82
2023-01-05T17:46:43.481Z,8.13
2023-01-05T17:49:19.787Z,6.80
2023-01-05T17:51:47.046Z,9.60
2023-01-05T17:54:14.707Z,8.82
2023-01-05T17:56:41.122Z,7.80
2023-01-05T17:59:07.578Z,7.95
2023-01-05T18:01:34.300Z,9.88
2023-01-05T18:04:01.279Z,11.57
2023-01-05T18:06:27.899Z,8.98
2023-01-05T18:08:54.579Z,9.38
2023-01-05T18:11:20.968Z,7.90
2023-01-05T18:13:47.350Z,8.07
2023-01-05T18:16:13.855Z,8.27
2023-01-05T18:18:40.299Z,9.77
2023-01-05T18:21:07.329Z,10.13
2023-01-05T18:23:34.253Z,9.40
2023-01-05T18:26:08.822Z,9.05
2023-01-05T18:28:37.016Z,10.10
2023-01-05T18:31:14.051Z,9.55
2023-01-05T18:33:40.803Z,10.23
2023-01-05T18:36:08.900Z,9.73
2023-01-05T18:38:37.022Z,10.60
2023-01-05T18:41:03.450Z,9.70
2023-01-05T18:43:31.858Z,10.95
2023-01-05T18:45:58.542Z,9.80
2023-01-05T18:48:25.114Z,10.02
2023-01-05T18:50:52.264Z,9.32
2023-01-05T18:53:19.899Z,9.95
2023-01-05T18:55:46.318Z,9.63
2023-01-05T18:58:12.855Z,8.90
2023-01-05T19:00:43.843Z,10.07
2023-01-05T19:03:10.891Z,9.68
2023-01-05T19:05:41.127Z,10.02
2023-01-05T19:08:09.035Z,9.73
2023-01-05T19:10:35.692Z,10.15
2023-01-05T19:13:02.058Z,10.73
2023-01-05T19:15:28.570Z,10.25
2023-01-05T19:17:55.800Z,12.38
2023-01-05T19:20:23.652Z,12.57
2023-01-05T19:22:50.292Z,12.68
2023-01-05T19:25:16.667Z,18.17
2023-01-05T19:27:44.979Z,12.32
2023-01-05T19:30:11.830Z,11.80
2023-01-05T19:32:38.223Z,14.57
2023-01-05T19:35:06.165Z,14.10
2023-01-05T19:37:35.933Z,15.70
2023-01-05T19:40:02.747Z,13.75
2023-01-05T19:42:30.476Z,15.30
2023-01-05T19:44:56.854Z,13.40
2023-01-05T19:47:23.233Z,14.13
2023-01-05T19:49:49.831Z,13.98
2023-01-05T19:52:16.220Z,14.75
2023-01-05T19:54:42.624Z,15.30
2023-01-05T19:57:09.005Z,13.68
2023-01-05T19:59:36.183Z,15.43
2023-01-05T20:02:04.544Z,14.30
2023-01-05T20:04:31.133Z,15.40
2023-01-05T20:06:57.903Z,18.38
2023-01-05T20:09:24.940Z,22.05
2023-01-05T20:11:56.858Z,18.63
2023-01-05T20:14:30.721Z,16.50
2023-01-05T20:17:02.433Z,17.02
2023-01-05T20:19:30.445Z,16.25
2023-01-05T20:21:58.520Z,16.42
2023-01-05T20:24:27.838Z,16.80
2023-01-05T20:26:59.071Z,19.00
2023-01-05T20:29:26.180Z,16.30
2023-01-05T20:31:57.943Z,17.10
2023-01-05T20:34:28.440Z,16.55
2023-01-05T20:36:54.808Z,15.60
2023-01-05T20:39:24.476Z,15.93
2023-01-05T20:41:52.442Z,16.83
2023-01-05T20:44:22.047Z,17.13
2023-01-05T20:46:50.132Z,15.15
2023-01-05T20:49:16.857Z,15.25
2023-01-05T20:51:43.373Z,16.27
2023-01-05T20:54:10.642Z,15.90
2023-01-05T20:56:38.905Z,16.10
2023-01-05T20:59:14.267Z,15.35
2023-01-05T21:01:40.707Z,15.82
2023-01-05T21:04:07.454Z,15.05
2023-01-05T21:06:34.643Z,19.17
2023-01-05T21:09:01.543Z,15.63
2023-01-05T21:11:29.268Z,16.77
2023-01-05T21:13:57.018Z,15.43
2023-01-05T21:16:30.498Z,16.25
2023-01-05T21:18:57.869Z,17.60
2023-01-05T21:21:26.413Z,17.55
2023-01-05T21:23:53.771Z,17.15
2023-01-05T21:26:21.032Z,17.02
2023-01-05T21:28:49.850Z,18.42
2023-01-05T21:31:18.912Z,20.25
2023-01-05T21:33:45.827Z,19.08
2023-01-05T21:36:23.995Z,17.98
2023-01-05T21:39:01.415Z,17.98
2023-01-05T21:41:49.281Z,16.55
2023-01-05T21:44:15.806Z,18.08
2023-01-05T21:46:42.506Z,18.75
2023-01-05T21:49:09.700Z,17.25
2023-01-05T21:51:54.944Z,17.48
2023-01-05T21:54:40.196Z,16.40
2023-01-05T21:57:06.986Z,18.08
2023-01-05T21:59:33.415Z,17.58
2023-01-05T22:01:59.851Z,18.58
2023-01-05T22:04:26.237Z,18.55
2023-01-05T22:06:52.630Z,18.85
2023-01-05T22:09:19.063Z,19.52
2023-01-05T22:11:45.482Z,18.50
2023-01-05T22:14:12.034Z,19.33
2023-01-05T22:16:38.424Z,18.58
2023-01-05T22:19:04.884Z,18.02
2023-01-05T22:21:31.287Z,17.25
2023-01-05T22:23:57.861Z,18.08
2023-01-05T22:26:24.423Z,17.25
2023-01-05T22:28:51.395Z,17.88
2023-01-05T22:31:20.208Z,17.75
2023-01-05T22:33:49.814Z,19.58
2023-01-05T22:36:17.626Z,18.60
2023-01-05T22:38:45.181Z,18.25
2023-01-05T22:41:13.415Z,18.48
2023-01-05T22:43:41.009Z,19.27
2023-01-05T22:46:12.328Z,18.27
2023-01-05T22:48:41.193Z,19.40
2023-01-05T22:51:19.476Z,21.38
2023-01-05T22:53:46.080Z,20.85
2023-01-05T22:56:13.787Z,20.60
2023-01-05T22:58:40.609Z,21.50
2023-01-05T23:01:11.748Z,21.75
2023-01-05T23:03:38.880Z,21.70
2023-01-05T23:06:05.917Z,23.30
2023-01-05T23:08:34.758Z,22.63
2023-01-05T23:11:07.857Z,23.27
2023-01-05T23:13:34.614Z,24.13
2023-01-05T23:16:01.039Z,23.77
2023-01-05T23:18:27.715Z,23.58
2023-01-05T23:20:55.948Z,23.38
2023-01-05T23:23:22.947Z,23.58
2023-01-05T23:25:50.116Z,23.92
2023-01-05T23:28:18.014Z,24.90
2023-01-05T23:30:49.663Z,22.60
2023-01-05T23:33:17.317Z,24.27
2023-01-05T23:35:44.197Z,23.27
2023-01-05T23:38:11.039Z,23.42
2023-01-05T23:40:42.361Z,23.13
2023-01-05T23:43:10.472Z,22.92
2023-01-05T23:45:36.997Z,23.42
2023-01-05T23:48:03.526Z,22.95
2023-01-05T23:50:29.921Z,22.30
2023-01-05T23:52:56.301Z,23.60
2023-01-05T23:55:22.695Z,21.15
2023-01-05T23:57:49.058Z,23.67
